sensor_id;sensor_type;location;lat;lon;timestamp;P1;durP1;ratioP1;P2;durP2;ratioP2
25649;SDS011;13505;45.196;5.696;2023-07-13T04:32:45;2.15;;;1.23;;
25649;SDS011;13505;45.196;5.696;2023-07-13T04:37:35;5.65;;;1.45;;
25649;SDS011;13505;45.196;5.696;2023-07-13T04:42:26;3.22;;;1.02;;
25649;SDS011;13505;45.196;5.696;2023-07-13T04:47:16;4.60;;;1.40;;
25649;SDS011;13505;45.196;5.696;2023-07-13T04:52:07;4.22;;;1.20;;
25649;SDS011;13505;45.196;5.696;2023-07-13T04:56:58;2.13;;;1.10;;
25649;SDS011;13505;45.196;5.696;2023-07-13T05:01:48;4.77;;;1.07;;
25649;SDS011;13505;45.196;5.696;2023-07-13T05:06:38;3.78;;;1.40;;
25649;SDS011;13505;45.196;5.696;2023-07-13T05:11:29;2.17;;;1.00;;
25649;SDS011;13505;45.196;5.696;2023-07-13T05:16:19;4.20;;;1.30;;
25649;SDS011;13505;45.196;5.696;2023-07-13T05:21:10;4.63;;;1.50;;
25649;SDS011;13505;45.196;5.696;2023-07-13T05:26:01;1.95;;;1.20;;
25649;SDS011;13505;45.196;5.696;2023-07-13T05:30:52;2.65;;;1.20;;
25649;SDS011;13505;45.196;5.696;2023-07-13T05:35:43;4.00;;;1.30;;
25649;SDS011;13505;45.196;5.696;2023-07-13T05:40:34;3.90;;;1.37;;
25649;SDS011;13505;45.196;5.696;2023-07-13T05:45:24;5.35;;;1.50;;
25649;SDS011;13505;45.196;5.696;2023-07-13T05:50:15;7.45;;;2.30;;
25649;SDS011;13505;45.196;5.696;2023-07-13T05:55:06;5.78;;;1.40;;
25649;SDS011;13505;45.196;5.696;2023-07-13T05:59:56;5.88;;;1.30;;
25649;SDS011;13505;45.196;5.696;2023-07-13T06:04:47;2.47;;;1.25;;
25649;SDS011;13505;45.196;5.696;2023-07-13T06:09:37;6.00;;;1.60;;
25649;SDS011;13505;45.196;5.696;2023-07-13T06:14:28;2.35;;;1.30;;
25649;SDS011;13505;45.196;5.696;2023-07-13T06:19:18;4.87;;;1.50;;
25649;SDS011;13505;45.196;5.696;2023-07-13T06:24:09;4.73;;;1.73;;
25649;SDS011;13505;45.196;5.696;2023-07-13T06:28:59;3.97;;;1.70;;
25649;SDS011;13505;45.196;5.696;2023-07-13T06:33:49;7.47;;;1.50;;
25649;SDS011;13505;45.196;5.696;2023-07-13T06:38:40;23.58;;;3.65;;
25649;SDS011;13505;45.196;5.696;2023-07-13T06:43:30;4.83;;;1.53;;
25649;SDS011;13505;45.196;5.696;2023-07-13T06:48:21;9.73;;;1.92;;
25649;SDS011;13505;45.196;5.696;2023-07-13T06:53:12;8.60;;;1.70;;
25649;SDS011;13505;45.196;5.696;2023-07-13T06:58:03;6.18;;;1.58;;
25649;SDS011;13505;45.196;5.696;2023-07-13T07:02:53;9.18;;;2.20;;
25649;SDS011;13505;45.196;5.696;2023-07-13T07:07:44;4.70;;;1.40;;
25649;SDS011;13505;45.196;5.696;2023-07-13T07:12:34;10.45;;;2.13;;
25649;SDS011;13505;45.196;5.696;2023-07-13T07:17:24;4.72;;;1.73;;
25649;SDS011;13505;45.196;5.696;2023-07-13T07:22:16;7.82;;;1.52;;
25649;SDS011;13505;45.196;5.696;2023-07-13T07:27:06;7.57;;;2.00;;
25649;SDS011;13505;45.196;5.696;2023-07-13T07:31:56;5.13;;;1.58;;
25649;SDS011;13505;45.196;5.696;2023-07-13T07:36:49;4.10;;;1.67;;
25649;SDS011;13505;45.196;5.696;2023-07-13T07:41:39;1.80;;;1.37;;
25649;SDS011;13505;45.196;5.696;2023-07-13T07:46:29;4.43;;;1.27;;
25649;SDS011;13505;45.196;5.696;2023-07-13T07:51:20;4.32;;;1.70;;
25649;SDS011;13505;45.196;5.696;2023-07-13T07:56:10;3.27;;;1.40;;
25649;SDS011;13505;45.196;5.696;2023-07-13T08:01:03;2.77;;;1.40;;
25649;SDS011;13505;45.196;5.696;2023-07-13T08:05:57;8.63;;;1.70;;
25649;SDS011;13505;45.196;5.696;2023-07-13T08:10:47;9.98;;;2.38;;
25649;SDS011;13505;45.196;5.696;2023-07-13T08:15:38;25.50;;;3.53;;
25649;SDS011;13505;45.196;5.696;2023-07-13T08:20:28;3.37;;;1.30;;
25649;SDS011;13505;45.196;5.696;2023-07-13T08:25:18;11.68;;;2.13;;
25649;SDS011;13505;45.196;5.696;2023-07-13T08:30:10;5.60;;;2.00;;
25649;SDS011;13505;45.196;5.696;2023-07-13T08:35:00;3.10;;;1.60;;
25649;SDS011;13505;45.196;5.696;2023-07-13T08:39:51;3.27;;;1.50;;
25649;SDS011;13505;45.196;5.696;2023-07-13T08:49:53;3.35;;;1.83;;
25649;SDS011;13505;45.196;5.696;2023-07-13T08:54:48;4.13;;;1.65;;
25649;SDS011;13505;45.196;5.696;2023-07-13T08:59:41;17.95;;;3.20;;
25649;SDS011;13505;45.196;5.696;2023-07-13T09:04:43;5.18;;;1.95;;
25649;SDS011;13505;45.196;5.696;2023-07-13T09:09:48;5.40;;;1.70;;
25649;SDS011;13505;45.196;5.696;2023-07-13T09:14:55;3.33;;;1.98;;
25649;SDS011;13505;45.196;5.696;2023-07-13T09:19:49;4.70;;;1.42;;
25649;SDS011;13505;45.196;5.696;2023-07-13T09:29:40;3.40;;;1.70;;
25649;SDS011;13505;45.196;5.696;2023-07-13T09:34:35;24.48;;;3.75;;
25649;SDS011;13505;45.196;5.696;2023-07-13T09:39:27;8.83;;;1.90;;
25649;SDS011;13505;45.196;5.696;2023-07-13T09:49:33;4.63;;;1.75;;
25649;SDS011;13505;45.196;5.696;2023-07-13T09:54:25;6.97;;;1.80;;
25649;SDS011;13505;45.196;5.696;2023-07-13T09:59:20;4.80;;;1.30;;
25649;SDS011;13505;45.196;5.696;2023-07-13T10:04:12;6.93;;;1.42;;
25649;SDS011;13505;45.196;5.696;2023-07-13T10:09:04;1.65;;;1.27;;
25649;SDS011;13505;45.196;5.696;2023-07-13T10:14:02;5.85;;;1.67;;
25649;SDS011;13505;45.196;5.696;2023-07-13T10:18:59;3.08;;;1.58;;
25649;SDS011;13505;45.196;5.696;2023-07-13T10:24:17;6.03;;;1.52;;
25649;SDS011;13505;45.196;5.696;2023-07-13T10:29:11;2.88;;;1.50;;
25649;SDS011;13505;45.196;5.696;2023-07-13T10:34:08;2.58;;;1.35;;
25649;SDS011;13505;45.196;5.696;2023-07-13T10:39:01;2.20;;;1.35;;
25649;SDS011;13505;45.196;5.696;2023-07-13T10:43:54;4.05;;;1.65;;
25649;SDS011;13505;45.196;5.696;2023-07-13T10:48:48;2.10;;;1.30;;
25649;SDS011;13505;45.196;5.696;2023-07-13T10:53:42;3.30;;;1.33;;
25649;SDS011;13505;45.196;5.696;2023-07-13T11:03:26;3.15;;;1.50;;
25649;SDS011;13505;45.196;5.696;2023-07-13T11:08:32;4.05;;;1.45;;
25649;SDS011;13505;45.196;5.696;2023-07-13T11:18:35;5.45;;;1.48;;
25649;SDS011;13505;45.196;5.696;2023-07-13T11:23:29;5.95;;;1.80;;
25649;SDS011;13505;45.196;5.696;2023-07-13T11:28:22;3.25;;;1.73;;
25649;SDS011;13505;45.196;5.696;2023-07-13T11:33:24;3.15;;;1.38;;
25649;SDS011;13505;45.196;5.696;2023-07-13T11:38:19;7.00;;;1.70;;
25649;SDS011;13505;45.196;5.696;2023-07-13T11:43:15;6.05;;;1.77;;
25649;SDS011;13505;45.196;5.696;2023-07-13T11:48:16;3.95;;;1.27;;
25649;SDS011;13505;45.196;5.696;2023-07-13T11:53:08;8.50;;;2.47;;
25649;SDS011;13505;45.196;5.696;2023-07-13T11:58:00;12.32;;;2.22;;
25649;SDS011;13505;45.196;5.696;2023-07-13T12:02:54;18.00;;;2.70;;
25649;SDS011;13505;45.196;5.696;2023-07-13T12:07:47;6.95;;;1.65;;
25649;SDS011;13505;45.196;5.696;2023-07-13T12:12:40;9.75;;;2.67;;
25649;SDS011;13505;45.196;5.696;2023-07-13T12:17:37;5.43;;;2.10;;
25649;SDS011;13505;45.196;5.696;2023-07-13T12:22:28;2.30;;;1.47;;
25649;SDS011;13505;45.196;5.696;2023-07-13T12:32:14;1.98;;;1.25;;
25649;SDS011;13505;45.196;5.696;2023-07-13T12:37:08;4.75;;;1.60;;
25649;SDS011;13505;45.196;5.696;2023-07-13T12:47:19;3.85;;;1.55;;
25649;SDS011;13505;45.196;5.696;2023-07-13T12:52:17;4.18;;;1.55;;
25649;SDS011;13505;45.196;5.696;2023-07-13T12:57:13;3.63;;;1.50;;
25649;SDS011;13505;45.196;5.696;2023-07-13T13:02:40;3.42;;;1.60;;
25649;SDS011;13505;45.196;5.696;2023-07-13T13:07:25;4.93;;;1.50;;
25649;SDS011;13505;45.196;5.696;2023-07-13T13:12:16;2.10;;;1.30;;
25649;SDS011;13505;45.196;5.696;2023-07-13T13:17:18;1.95;;;1.10;;
25649;SDS011;13505;45.196;5.696;2023-07-13T13:22:10;5.22;;;1.38;;
25649;SDS011;13505;45.196;5.696;2023-07-13T13:27:01;2.20;;;1.40;;
25649;SDS011;13505;45.196;5.696;2023-07-13T13:31:52;1.98;;;1.30;;
25649;SDS011;13505;45.196;5.696;2023-07-13T13:36:44;2.63;;;1.15;;
25649;SDS011;13505;45.196;5.696;2023-07-13T13:41:36;2.85;;;1.30;;
25649;SDS011;13505;45.196;5.696;2023-07-13T13:46:26;2.55;;;1.45;;
25649;SDS011;13505;45.196;5.696;2023-07-13T13:51:19;5.75;;;1.30;;
25649;SDS011;13505;45.196;5.696;2023-07-13T13:56:12;1.95;;;1.40;;
25649;SDS011;13505;45.196;5.696;2023-07-13T14:01:03;3.55;;;1.23;;
25649;SDS011;13505;45.196;5.696;2023-07-13T14:05:58;1.67;;;1.33;;
25649;SDS011;13505;45.196;5.696;2023-07-13T14:10:52;2.25;;;1.40;;
25649;SDS011;13505;45.196;5.696;2023-07-13T14:15:45;2.28;;;1.40;;
25649;SDS011;13505;45.196;5.696;2023-07-13T14:20:36;2.53;;;1.27;;
25649;SDS011;13505;45.196;5.696;2023-07-13T14:25:27;6.47;;;1.45;;
25649;SDS011;13505;45.196;5.696;2023-07-13T14:30:19;5.85;;;1.65;;
25649;SDS011;13505;45.196;5.696;2023-07-13T14:35:11;1.40;;;1.30;;
25649;SDS011;13505;45.196;5.696;2023-07-13T14:40:07;3.10;;;1.10;;
25649;SDS011;13505;45.196;5.696;2023-07-13T14:45:02;4.63;;;1.48;;
25649;SDS011;13505;45.196;5.696;2023-07-13T14:49:53;2.65;;;1.40;;
25649;SDS011;13505;45.196;5.696;2023-07-13T14:54:43;3.35;;;1.50;;
25649;SDS011;13505;45.196;5.696;2023-07-13T14:59:35;7.60;;;1.58;;
25649;SDS011;13505;45.196;5.696;2023-07-13T15:04:26;2.30;;;1.20;;
25649;SDS011;13505;45.196;5.696;2023-07-13T15:09:16;1.30;;;1.20;;
25649;SDS011;13505;45.196;5.696;2023-07-13T15:14:06;2.65;;;1.40;;
25649;SDS011;13505;45.196;5.696;2023-07-13T15:18:57;3.17;;;1.20;;
25649;SDS011;13505;45.196;5.696;2023-07-13T15:23:49;3.47;;;1.70;;
25649;SDS011;13505;45.196;5.696;2023-07-13T15:28:41;5.47;;;1.40;;
25649;SDS011;13505;45.196;5.696;2023-07-13T15:33:33;3.15;;;1.55;;
25649;SDS011;13505;45.196;5.696;2023-07-13T15:38:30;3.97;;;1.73;;
25649;SDS011;13505;45.196;5.696;2023-07-13T15:43:21;3.27;;;1.30;;
25649;SDS011;13505;45.196;5.696;2023-07-13T15:48:14;4.38;;;1.55;;
25649;SDS011;13505;45.196;5.696;2023-07-13T15:53:08;3.33;;;1.40;;
25649;SDS011;13505;45.196;5.696;2023-07-13T15:58:00;2.22;;;1.25;;
25649;SDS011;13505;45.196;5.696;2023-07-13T16:02:51;3.40;;;1.30;;
25649;SDS011;13505;45.196;5.696;2023-07-13T16:07:45;2.78;;;1.23;;
25649;SDS011;13505;45.196;5.696;2023-07-13T16:12:37;4.20;;;1.30;;
25649;SDS011;13505;45.196;5.696;2023-07-13T16:17:27;3.22;;;1.50;;
25649;SDS011;13505;45.196;5.696;2023-07-13T16:22:18;3.70;;;1.33;;
25649;SDS011;13505;45.196;5.696;2023-07-13T16:27:11;5.50;;;1.58;;
25649;SDS011;13505;45.196;5.696;2023-07-13T16:36:57;2.95;;;1.67;;
25649;SDS011;13505;45.196;5.696;2023-07-13T16:41:47;1.52;;;1.20;;
25649;SDS011;13505;45.196;5.696;2023-07-13T16:46:38;2.40;;;1.60;;
25649;SDS011;13505;45.196;5.696;2023-07-13T16:51:29;7.63;;;1.90;;
25649;SDS011;13505;45.196;5.696;2023-07-13T16:56:19;4.93;;;1.73;;
25649;SDS011;13505;45.196;5.696;2023-07-13T17:01:10;3.30;;;1.85;;
25649;SDS011;13505;45.196;5.696;2023-07-13T17:06:02;3.00;;;2.00;;
25649;SDS011;13505;45.196;5.696;2023-07-13T17:11:10;2.25;;;1.60;;
25649;SDS011;13505;45.196;5.696;2023-07-13T17:16:00;5.93;;;1.50;;
25649;SDS011;13505;45.196;5.696;2023-07-13T17:20:51;5.00;;;1.55;;
25649;SDS011;13505;45.196;5.696;2023-07-13T17:25:42;2.10;;;1.60;;
25649;SDS011;13505;45.196;5.696;2023-07-13T17:30:33;4.45;;;1.50;;
25649;SDS011;13505;45.196;5.696;2023-07-13T17:35:24;4.72;;;1.70;;
25649;SDS011;13505;45.196;5.696;2023-07-13T17:40:16;2.50;;;1.40;;
25649;SDS011;13505;45.196;5.696;2023-07-13T17:45:08;4.22;;;1.73;;
25649;SDS011;13505;45.196;5.696;2023-07-13T17:50:00;3.42;;;1.40;;
25649;SDS011;13505;45.196;5.696;2023-07-13T17:54:53;3.05;;;1.85;;
25649;SDS011;13505;45.196;5.696;2023-07-13T17:59:43;2.67;;;1.70;;
25649;SDS011;13505;45.196;5.696;2023-07-13T18:04:34;4.35;;;1.58;;
25649;SDS011;13505;45.196;5.696;2023-07-13T18:09:27;3.63;;;1.60;;
25649;SDS011;13505;45.196;5.696;2023-07-13T18:14:19;2.97;;;1.63;;
25649;SDS011;13505;45.196;5.696;2023-07-13T18:19:23;3.00;;;1.92;;
25649;SDS011;13505;45.196;5.696;2023-07-13T18:24:27;3.78;;;2.10;;
25649;SDS011;13505;45.196;5.696;2023-07-13T18:29:18;5.68;;;1.90;;
25649;SDS011;13505;45.196;5.696;2023-07-13T18:34:08;2.15;;;1.45;;
25649;SDS011;13505;45.196;5.696;2023-07-13T18:39:01;5.70;;;1.60;;
25649;SDS011;13505;45.196;5.696;2023-07-13T18:43:52;3.22;;;1.55;;
25649;SDS011;13505;45.196;5.696;2023-07-13T18:48:42;2.47;;;1.50;;
25649;SDS011;13505;45.196;5.696;2023-07-13T18:53:34;3.67;;;1.50;;
25649;SDS011;13505;45.196;5.696;2023-07-13T18:58:24;2.73;;;1.57;;
25649;SDS011;13505;45.196;5.696;2023-07-13T19:03:17;3.78;;;1.40;;
25649;SDS011;13505;45.196;5.696;2023-07-13T19:08:11;4.13;;;1.77;;
25649;SDS011;13505;45.196;5.696;2023-07-13T19:13:08;4.45;;;1.98;;
25649;SDS011;13505;45.196;5.696;2023-07-13T19:18:00;3.65;;;1.60;;
25649;SDS011;13505;45.196;5.696;2023-07-13T19:23:02;4.22;;;1.63;;
25649;SDS011;13505;45.196;5.696;2023-07-13T19:28:00;5.78;;;1.92;;
25649;SDS011;13505;45.196;5.696;2023-07-13T19:32:52;4.32;;;1.70;;
25649;SDS011;13505;45.196;5.696;2023-07-13T19:37:43;3.42;;;1.70;;
25649;SDS011;13505;45.196;5.696;2023-07-13T19:42:34;6.15;;;1.63;;
25649;SDS011;13505;45.196;5.696;2023-07-13T19:47:25;2.92;;;1.80;;
25649;SDS011;13505;45.196;5.696;2023-07-13T19:52:16;2.20;;;1.42;;
25649;SDS011;13505;45.196;5.696;2023-07-13T19:57:16;4.00;;;1.58;;
25649;SDS011;13505;45.196;5.696;2023-07-13T20:02:08;2.67;;;1.58;;
25649;SDS011;13505;45.196;5.696;2023-07-13T20:06:58;4.77;;;1.60;;
25649;SDS011;13505;45.196;5.696;2023-07-13T20:11:49;5.50;;;1.58;;
25649;SDS011;13505;45.196;5.696;2023-07-13T20:16:41;2.40;;;1.42;;
25649;SDS011;13505;45.196;5.696;2023-07-13T20:21:32;5.15;;;1.88;;
25649;SDS011;13505;45.196;5.696;2023-07-13T20:26:22;2.63;;;1.65;;
25649;SDS011;13505;45.196;5.696;2023-07-13T20:31:13;4.20;;;1.55;;
25649;SDS011;13505;45.196;5.696;2023-07-13T20:36:05;6.25;;;1.40;;
25649;SDS011;13505;45.196;5.696;2023-07-13T20:40:58;4.30;;;1.60;;
25649;SDS011;13505;45.196;5.696;2023-07-13T20:45:50;2.40;;;1.23;;
25649;SDS011;13505;45.196;5.696;2023-07-13T20:50:49;7.28;;;1.55;;
25649;SDS011;13505;45.196;5.696;2023-07-13T20:55:41;2.15;;;1.40;;
25649;SDS011;13505;45.196;5.696;2023-07-13T21:00:31;2.83;;;1.30;;
25649;SDS011;13505;45.196;5.696;2023-07-13T21:05:23;5.43;;;1.63;;
25649;SDS011;13505;45.196;5.696;2023-07-13T21:10:19;3.25;;;1.42;;
25649;SDS011;13505;45.196;5.696;2023-07-13T21:15:10;1.95;;;1.42;;
25649;SDS011;13505;45.196;5.696;2023-07-13T21:20:01;3.00;;;1.50;;
25649;SDS011;13505;45.196;5.696;2023-07-13T21:24:53;2.80;;;1.60;;
25649;SDS011;13505;45.196;5.696;2023-07-13T21:29:44;4.77;;;1.70;;
25649;SDS011;13505;45.196;5.696;2023-07-13T21:34:34;9.25;;;6.88;;
25649;SDS011;13505;45.196;5.696;2023-07-13T21:39:24;17.57;;;11.03;;
25649;SDS011;13505;45.196;5.696;2023-07-13T21:44:22;11.35;;;7.28;;
25649;SDS011;13505;45.196;5.696;2023-07-13T21:49:13;7.70;;;5.03;;
25649;SDS011;13505;45.196;5.696;2023-07-13T21:54:04;6.00;;;4.28;;
25649;SDS011;13505;45.196;5.696;2023-07-13T21:59:12;5.03;;;2.67;;
